sensor_id;sensor_type;location;lat;lon;timestamp;P1;durP1;ratioP1;P2;durP2;ratioP2
63688;SDS011;54895;40.928;14.480;2022-12-18T00:00:46;59.67;;;40.47;;
63688;SDS011;54895;40.928;14.480;2022-12-18T00:03:13;55.42;;;38.55;;
63688;SDS011;54895;40.928;14.480;2022-12-18T00:05:47;64.20;;;41.42;;
63688;SDS011;54895;40.928;14.480;2022-12-18T00:08:13;61.70;;;42.35;;
63688;SDS011;54895;40.928;14.480;2022-12-18T00:10:39;70.53;;;47.08;;
63688;SDS011;54895;40.928;14.480;2022-12-18T00:13:06;62.65;;;42.85;;
63688;SDS011;54895;40.928;14.480;2022-12-18T00:15:36;57.22;;;39.20;;
63688;SDS011;54895;40.928;14.480;2022-12-18T00:21:32;65.20;;;41.85;;
63688;SDS011;54895;40.928;14.480;2022-12-18T00:23:58;69.53;;;42.53;;
63688;SDS011;54895;40.928;14.480;2022-12-18T00:26:26;63.80;;;43.22;;
63688;SDS011;54895;40.928;14.480;2022-12-18T00:29:00;66.45;;;43.97;;
63688;SDS011;54895;40.928;14.480;2022-12-18T00:31:26;58.60;;;40.08;;
63688;SDS011;54895;40.928;14.480;2022-12-18T00:33:56;59.00;;;39.72;;
63688;SDS011;54895;40.928;14.480;2022-12-18T00:36:23;61.70;;;40.40;;
63688;SDS011;54895;40.928;14.480;2022-12-18T00:38:54;63.17;;;41.03;;
63688;SDS011;54895;40.928;14.480;2022-12-18T00:41:39;62.72;;;42.42;;
63688;SDS011;54895;40.928;14.480;2022-12-18T00:44:24;62.22;;;43.03;;
63688;SDS011;54895;40.928;14.480;2022-12-18T00:46:51;60.17;;;40.47;;
63688;SDS011;54895;40.928;14.480;2022-12-18T00:49:17;54.83;;;37.85;;
63688;SDS011;54895;40.928;14.480;2022-12-18T00:51:44;63.15;;;40.35;;
63688;SDS011;54895;40.928;14.480;2022-12-18T00:54:10;65.03;;;43.10;;
63688;SDS011;54895;40.928;14.480;2022-12-18T00:56:37;60.53;;;40.97;;
63688;SDS011;54895;40.928;14.480;2022-12-18T00:59:04;62.58;;;42.38;;
63688;SDS011;54895;40.928;14.480;2022-12-18T01:01:31;55.03;;;38.33;;
63688;SDS011;54895;40.928;14.480;2022-12-18T01:03:59;65.47;;;37.85;;
63688;SDS011;54895;40.928;14.480;2022-12-18T01:06:25;62.55;;;39.78;;
63688;SDS011;54895;40.928;14.480;2022-12-18T01:08:51;71.88;;;46.55;;
63688;SDS011;54895;40.928;14.480;2022-12-18T01:11:18;62.65;;;43.30;;
63688;SDS011;54895;40.928;14.480;2022-12-18T01:13:45;63.42;;;41.40;;
63688;SDS011;54895;40.928;14.480;2022-12-18T01:16:11;56.50;;;39.30;;
63688;SDS011;54895;40.928;14.480;2022-12-18T01:21:28;61.35;;;40.03;;
63688;SDS011;54895;40.928;14.480;2022-12-18T01:23:55;69.63;;;45.65;;
63688;SDS011;54895;40.928;14.480;2022-12-18T01:26:23;68.40;;;47.38;;
63688;SDS011;54895;40.928;14.480;2022-12-18T01:28:50;69.28;;;45.53;;
63688;SDS011;54895;40.928;14.480;2022-12-18T01:33:43;54.42;;;36.58;;
63688;SDS011;54895;40.928;14.480;2022-12-18T01:36:14;54.97;;;35.75;;
63688;SDS011;54895;40.928;14.480;2022-12-18T01:38:41;62.70;;;40.72;;
63688;SDS011;54895;40.928;14.480;2022-12-18T01:41:08;61.85;;;40.97;;
63688;SDS011;54895;40.928;14.480;2022-12-18T01:46:21;47.97;;;32.03;;
63688;SDS011;54895;40.928;14.480;2022-12-18T01:48:52;48.47;;;31.02;;
63688;SDS011;54895;40.928;14.480;2022-12-18T01:51:20;54.28;;;35.15;;
63688;SDS011;54895;40.928;14.480;2022-12-18T01:53:46;52.20;;;35.63;;
63688;SDS011;54895;40.928;14.480;2022-12-18T01:56:13;50.17;;;33.42;;
63688;SDS011;54895;40.928;14.480;2022-12-18T02:01:25;42.60;;;29.02;;
63688;SDS011;54895;40.928;14.480;2022-12-18T02:03:51;42.53;;;25.75;;
63688;SDS011;54895;40.928;14.480;2022-12-18T02:13:55;36.42;;;24.85;;
63688;SDS011;54895;40.928;14.480;2022-12-18T02:27:32;29.20;;;19.77;;
63688;SDS011;54895;40.928;14.480;2022-12-18T02:29:59;30.75;;;20.60;;
63688;SDS011;54895;40.928;14.480;2022-12-18T02:32:31;29.20;;;21.50;;
63688;SDS011;54895;40.928;14.480;2022-12-18T02:35:01;33.83;;;23.13;;
63688;SDS011;54895;40.928;14.480;2022-12-18T02:37:29;34.38;;;26.52;;
63688;SDS011;54895;40.928;14.480;2022-12-18T02:39:58;37.15;;;26.50;;
63688;SDS011;54895;40.928;14.480;2022-12-18T02:42:25;30.95;;;23.13;;
63688;SDS011;54895;40.928;14.480;2022-12-18T02:44:51;29.92;;;21.88;;
63688;SDS011;54895;40.928;14.480;2022-12-18T02:47:24;36.05;;;22.33;;
63688;SDS011;54895;40.928;14.480;2022-12-18T02:49:58;31.73;;;20.83;;
63688;SDS011;54895;40.928;14.480;2022-12-18T03:00:18;31.52;;;22.05;;
63688;SDS011;54895;40.928;14.480;2022-12-18T03:05:50;32.45;;;23.75;;
63688;SDS011;54895;40.928;14.480;2022-12-18T03:08:39;35.92;;;23.58;;
63688;SDS011;54895;40.928;14.480;2022-12-18T03:11:05;29.35;;;19.42;;
63688;SDS011;54895;40.928;14.480;2022-12-18T03:13:34;28.30;;;19.50;;
63688;SDS011;54895;40.928;14.480;2022-12-18T03:16:02;27.95;;;19.88;;
63688;SDS011;54895;40.928;14.480;2022-12-18T03:21:43;28.95;;;19.52;;
63688;SDS011;54895;40.928;14.480;2022-12-18T03:24:13;26.00;;;18.05;;
63688;SDS011;54895;40.928;14.480;2022-12-18T03:26:42;32.45;;;22.20;;
63688;SDS011;54895;40.928;14.480;2022-12-18T03:29:13;33.83;;;24.38;;
63688;SDS011;54895;40.928;14.480;2022-12-18T03:31:42;38.97;;;26.55;;
63688;SDS011;54895;40.928;14.480;2022-12-18T03:34:15;32.67;;;23.00;;
63688;SDS011;54895;40.928;14.480;2022-12-18T03:36:45;37.00;;;26.23;;
63688;SDS011;54895;40.928;14.480;2022-12-18T03:39:13;38.60;;;27.67;;
63688;SDS011;54895;40.928;14.480;2022-12-18T03:42:02;29.55;;;21.75;;
63688;SDS011;54895;40.928;14.480;2022-12-18T03:44:48;32.28;;;23.92;;
63688;SDS011;54895;40.928;14.480;2022-12-18T03:47:19;30.05;;;22.33;;
63688;SDS011;54895;40.928;14.480;2022-12-18T03:52:28;38.78;;;27.55;;
63688;SDS011;54895;40.928;14.480;2022-12-18T03:54:56;34.90;;;23.92;;
63688;SDS011;54895;40.928;14.480;2022-12-18T03:57:25;36.63;;;23.65;;
63688;SDS011;54895;40.928;14.480;2022-12-18T04:00:05;30.85;;;21.67;;
63688;SDS011;54895;40.928;14.480;2022-12-18T04:02:42;32.63;;;21.65;;
63688;SDS011;54895;40.928;14.480;2022-12-18T04:05:10;28.95;;;20.95;;
63688;SDS011;54895;40.928;14.480;2022-12-18T04:07:40;33.50;;;22.50;;
63688;SDS011;54895;40.928;14.480;2022-12-18T04:10:08;28.40;;;20.73;;
63688;SDS011;54895;40.928;14.480;2022-12-18T04:12:38;32.83;;;21.27;;
63688;SDS011;54895;40.928;14.480;2022-12-18T04:15:07;34.95;;;23.33;;
63688;SDS011;54895;40.928;14.480;2022-12-18T04:21:27;34.75;;;22.48;;
63688;SDS011;54895;40.928;14.480;2022-12-18T04:23:53;30.52;;;20.60;;
63688;SDS011;54895;40.928;14.480;2022-12-18T04:26:21;31.23;;;22.58;;
63688;SDS011;54895;40.928;14.480;2022-12-18T04:29:00;33.83;;;23.15;;
63688;SDS011;54895;40.928;14.480;2022-12-18T04:31:27;31.35;;;21.95;;
63688;SDS011;54895;40.928;14.480;2022-12-18T04:33:54;28.50;;;21.17;;
63688;SDS011;54895;40.928;14.480;2022-12-18T04:36:24;28.27;;;20.35;;
63688;SDS011;54895;40.928;14.480;2022-12-18T04:38:54;25.33;;;18.70;;
63688;SDS011;54895;40.928;14.480;2022-12-18T04:41:21;26.00;;;19.48;;
63688;SDS011;54895;40.928;14.480;2022-12-18T04:43:48;23.80;;;17.75;;
63688;SDS011;54895;40.928;14.480;2022-12-18T04:46:15;26.83;;;20.23;;
63688;SDS011;54895;40.928;14.480;2022-12-18T04:48:41;28.58;;;20.30;;
63688;SDS011;54895;40.928;14.480;2022-12-18T04:51:07;32.80;;;24.75;;
63688;SDS011;54895;40.928;14.480;2022-12-18T04:53:33;32.58;;;22.80;;
63688;SDS011;54895;40.928;14.480;2022-12-18T04:56:06;35.15;;;25.35;;
63688;SDS011;54895;40.928;14.480;2022-12-18T04:58:33;29.60;;;22.50;;
63688;SDS011;54895;40.928;14.480;2022-12-18T05:01:00;29.40;;;21.95;;
63688;SDS011;54895;40.928;14.480;2022-12-18T05:03:26;29.75;;;22.40;;
63688;SDS011;54895;40.928;14.480;2022-12-18T05:05:52;27.25;;;21.30;;
63688;SDS011;54895;40.928;14.480;2022-12-18T05:08:18;30.88;;;19.88;;
63688;SDS011;54895;40.928;14.480;2022-12-18T05:10:44;29.67;;;20.25;;
63688;SDS011;54895;40.928;14.480;2022-12-18T05:13:10;29.50;;;21.50;;
63688;SDS011;54895;40.928;14.480;2022-12-18T05:15:36;33.83;;;23.60;;
63688;SDS011;54895;40.928;14.480;2022-12-18T05:21:37;26.65;;;20.00;;
63688;SDS011;54895;40.928;14.480;2022-12-18T05:24:03;26.20;;;18.98;;
63688;SDS011;54895;40.928;14.480;2022-12-18T05:26:29;25.52;;;19.02;;
63688;SDS011;54895;40.928;14.480;2022-12-18T05:28:56;28.90;;;20.20;;
63688;SDS011;54895;40.928;14.480;2022-12-18T05:31:22;27.13;;;18.48;;
63688;SDS011;54895;40.928;14.480;2022-12-18T05:33:48;32.80;;;19.38;;
63688;SDS011;54895;40.928;14.480;2022-12-18T05:36:14;26.65;;;19.00;;
63688;SDS011;54895;40.928;14.480;2022-12-18T05:38:41;26.80;;;19.55;;
63688;SDS011;54895;40.928;14.480;2022-12-18T05:41:07;27.63;;;20.17;;
63688;SDS011;54895;40.928;14.480;2022-12-18T05:43:37;28.45;;;20.90;;
63688;SDS011;54895;40.928;14.480;2022-12-18T05:46:08;29.95;;;20.48;;
63688;SDS011;54895;40.928;14.480;2022-12-18T05:48:34;29.00;;;19.50;;
63688;SDS011;54895;40.928;14.480;2022-12-18T05:51:05;25.25;;;18.92;;
63688;SDS011;54895;40.928;14.480;2022-12-18T05:53:32;33.17;;;23.52;;
63688;SDS011;54895;40.928;14.480;2022-12-18T05:56:02;27.77;;;19.60;;
63688;SDS011;54895;40.928;14.480;2022-12-18T05:58:28;32.15;;;21.48;;
63688;SDS011;54895;40.928;14.480;2022-12-18T06:00:55;29.13;;;21.48;;
63688;SDS011;54895;40.928;14.480;2022-12-18T06:03:21;28.83;;;21.17;;
63688;SDS011;54895;40.928;14.480;2022-12-18T06:05:47;38.22;;;25.20;;
63688;SDS011;54895;40.928;14.480;2022-12-18T06:08:13;25.65;;;20.50;;
63688;SDS011;54895;40.928;14.480;2022-12-18T06:10:40;29.85;;;22.20;;
63688;SDS011;54895;40.928;14.480;2022-12-18T06:13:07;30.58;;;19.77;;
63688;SDS011;54895;40.928;14.480;2022-12-18T06:15:35;32.08;;;21.50;;
63688;SDS011;54895;40.928;14.480;2022-12-18T06:21:55;31.73;;;23.20;;
63688;SDS011;54895;40.928;14.480;2022-12-18T06:24:27;28.95;;;21.05;;
63688;SDS011;54895;40.928;14.480;2022-12-18T06:26:53;29.88;;;20.35;;
63688;SDS011;54895;40.928;14.480;2022-12-18T06:29:19;27.77;;;19.50;;
63688;SDS011;54895;40.928;14.480;2022-12-18T06:31:45;27.10;;;20.75;;
63688;SDS011;54895;40.928;14.480;2022-12-18T06:34:11;31.67;;;20.15;;
63688;SDS011;54895;40.928;14.480;2022-12-18T06:36:37;29.45;;;20.38;;
63688;SDS011;54895;40.928;14.480;2022-12-18T06:39:03;24.15;;;17.02;;
63688;SDS011;54895;40.928;14.480;2022-12-18T06:41:29;23.75;;;16.27;;
63688;SDS011;54895;40.928;14.480;2022-12-18T06:43:56;22.10;;;15.55;;
63688;SDS011;54895;40.928;14.480;2022-12-18T06:46:23;37.95;;;27.63;;
63688;SDS011;54895;40.928;14.480;2022-12-18T06:48:49;34.88;;;23.25;;
63688;SDS011;54895;40.928;14.480;2022-12-18T06:51:16;30.17;;;21.33;;
63688;SDS011;54895;40.928;14.480;2022-12-18T06:53:43;33.00;;;22.58;;
63688;SDS011;54895;40.928;14.480;2022-12-18T06:56:09;32.13;;;21.85;;
63688;SDS011;54895;40.928;14.480;2022-12-18T06:58:35;33.05;;;22.60;;
63688;SDS011;54895;40.928;14.480;2022-12-18T07:01:01;31.88;;;23.48;;
63688;SDS011;54895;40.928;14.480;2022-12-18T07:03:28;33.80;;;21.20;;
63688;SDS011;54895;40.928;14.480;2022-12-18T07:05:54;31.77;;;21.52;;
63688;SDS011;54895;40.928;14.480;2022-12-18T07:08:20;28.98;;;20.58;;
63688;SDS011;54895;40.928;14.480;2022-12-18T07:10:46;33.60;;;21.38;;
63688;SDS011;54895;40.928;14.480;2022-12-18T07:13:12;31.25;;;20.27;;
63688;SDS011;54895;40.928;14.480;2022-12-18T07:15:38;31.63;;;20.65;;
63688;SDS011;54895;40.928;14.480;2022-12-18T07:18:04;32.20;;;22.27;;
63688;SDS011;54895;40.928;14.480;2022-12-18T07:20:30;27.00;;;19.95;;
63688;SDS011;54895;40.928;14.480;2022-12-18T07:22:56;27.23;;;18.55;;
63688;SDS011;54895;40.928;14.480;2022-12-18T07:25:22;28.33;;;19.80;;
63688;SDS011;54895;40.928;14.480;2022-12-18T07:27:48;25.00;;;18.20;;
63688;SDS011;54895;40.928;14.480;2022-12-18T07:30:14;30.15;;;19.33;;
63688;SDS011;54895;40.928;14.480;2022-12-18T07:32:40;30.92;;;19.75;;
63688;SDS011;54895;40.928;14.480;2022-12-18T07:35:06;28.27;;;18.95;;
63688;SDS011;54895;40.928;14.480;2022-12-18T07:37:33;24.58;;;17.50;;
63688;SDS011;54895;40.928;14.480;2022-12-18T07:39:59;27.75;;;17.70;;
63688;SDS011;54895;40.928;14.480;2022-12-18T07:42:27;19.05;;;13.40;;
63688;SDS011;54895;40.928;14.480;2022-12-18T07:44:56;18.02;;;12.70;;
63688;SDS011;54895;40.928;14.480;2022-12-18T07:47:23;23.35;;;15.57;;
63688;SDS011;54895;40.928;14.480;2022-12-18T07:49:49;22.92;;;17.13;;
63688;SDS011;54895;40.928;14.480;2022-12-18T07:52:15;24.85;;;17.58;;
63688;SDS011;54895;40.928;14.480;2022-12-18T07:54:43;27.48;;;18.23;;
63688;SDS011;54895;40.928;14.480;2022-12-18T07:57:10;28.90;;;18.33;;
63688;SDS011;54895;40.928;14.480;2022-12-18T07:59:36;24.65;;;18.05;;
63688;SDS011;54895;40.928;14.480;2022-12-18T08:02:02;25.05;;;18.48;;
63688;SDS011;54895;40.928;14.480;2022-12-18T08:04:30;26.05;;;17.70;;
63688;SDS011;54895;40.928;14.480;2022-12-18T08:06:56;27.95;;;19.05;;
63688;SDS011;54895;40.928;14.480;2022-12-18T08:09:22;26.63;;;18.63;;
63688;SDS011;54895;40.928;14.480;2022-12-18T08:11:48;25.02;;;18.77;;
63688;SDS011;54895;40.928;14.480;2022-12-18T08:14:14;23.80;;;17.55;;
63688;SDS011;54895;40.928;14.480;2022-12-18T08:16:40;22.35;;;17.35;;
63688;SDS011;54895;40.928;14.480;2022-12-18T08:22:03;18.42;;;14.73;;
63688;SDS011;54895;40.928;14.480;2022-12-18T08:24:29;21.40;;;15.27;;
63688;SDS011;54895;40.928;14.480;2022-12-18T08:26:55;20.52;;;15.13;;
63688;SDS011;54895;40.928;14.480;2022-12-18T08:29:22;24.35;;;15.23;;
63688;SDS011;54895;40.928;14.480;2022-12-18T08:31:49;19.05;;;14.13;;
63688;SDS011;54895;40.928;14.480;2022-12-18T08:34:15;18.27;;;13.02;;
63688;SDS011;54895;40.928;14.480;2022-12-18T08:36:41;17.95;;;13.50;;
63688;SDS011;54895;40.928;14.480;2022-12-18T08:39:07;19.90;;;14.25;;
63688;SDS011;54895;40.928;14.480;2022-12-18T08:41:33;18.40;;;14.30;;
63688;SDS011;54895;40.928;14.480;2022-12-18T08:43:59;20.55;;;14.32;;
63688;SDS011;54895;40.928;14.480;2022-12-18T08:46:43;19.83;;;12.82;;
63688;SDS011;54895;40.928;14.480;2022-12-18T08:49:10;16.63;;;13.45;;
63688;SDS011;54895;40.928;14.480;2022-12-18T08:51:37;18.55;;;13.73;;
63688;SDS011;54895;40.928;14.480;2022-12-18T08:54:04;16.35;;;12.60;;
63688;SDS011;54895;40.928;14.480;2022-12-18T08:56:30;16.80;;;12.00;;
63688;SDS011;54895;40.928;14.480;2022-12-18T08:58:56;17.88;;;12.02;;
63688;SDS011;54895;40.928;14.480;2022-12-18T09:01:22;17.60;;;12.50;;
63688;SDS011;54895;40.928;14.480;2022-12-18T09:03:49;17.98;;;11.80;;
63688;SDS011;54895;40.928;14.480;2022-12-18T09:06:16;18.00;;;10.60;;
63688;SDS011;54895;40.928;14.480;2022-12-18T09:08:45;18.00;;;11.63;;
63688;SDS011;54895;40.928;14.480;2022-12-18T09:11:15;16.02;;;9.75;;
63688;SDS011;54895;40.928;14.480;2022-12-18T09:13:44;14.30;;;9.80;;
63688;SDS011;54895;40.928;14.480;2022-12-18T09:16:10;15.95;;;9.27;;
63688;SDS011;54895;40.928;14.480;2022-12-18T09:21:58;13.70;;;9.80;;
63688;SDS011;54895;40.928;14.480;2022-12-18T09:24:25;16.77;;;10.25;;
63688;SDS011;54895;40.928;14.480;2022-12-18T09:26:54;15.43;;;11.43;;
63688;SDS011;54895;40.928;14.480;2022-12-18T09:32:17;16.45;;;12.43;;
63688;SDS011;54895;40.928;14.480;2022-12-18T09:34:51;15.00;;;11.15;;
63688;SDS011;54895;40.928;14.480;2022-12-18T09:37:32;13.88;;;11.10;;
63688;SDS011;54895;40.928;14.480;2022-12-18T09:40:32;15.60;;;9.75;;
63688;SDS011;54895;40.928;14.480;2022-12-18T09:43:00;13.63;;;8.50;;
63688;SDS011;54895;40.928;14.480;2022-12-18T09:45:30;10.27;;;8.00;;
63688;SDS011;54895;40.928;14.480;2022-12-18T09:48:00;10.35;;;8.00;;
63688;SDS011;54895;40.928;14.480;2022-12-18T09:50:29;12.55;;;7.65;;
63688;SDS011;54895;40.928;14.480;2022-12-18T09:52:57;10.18;;;8.18;;
63688;SDS011;54895;40.928;14.480;2022-12-18T09:55:36;8.85;;;5.75;;
63688;SDS011;54895;40.928;14.480;2022-12-18T10:00:42;2.03;;;1.00;;
63688;SDS011;54895;40.928;14.480;2022-12-18T10:03:09;3.35;;;1.30;;
63688;SDS011;54895;40.928;14.480;2022-12-18T10:10:51;1.73;;;1.00;;
63688;SDS011;54895;40.928;14.480;2022-12-18T10:13:23;2.58;;;0.65;;
63688;SDS011;54895;40.928;14.480;2022-12-18T10:15:58;1.15;;;0.85;;
63688;SDS011;54895;40.928;14.480;2022-12-18T10:24:54;1.58;;;0.68;;
63688;SDS011;54895;40.928;14.480;2022-12-18T10:29:48;0.28;;;0.28;;
63688;SDS011;54895;40.928;14.480;2022-12-18T10:32:19;0.98;;;0.70;;
63688;SDS011;54895;40.928;14.480;2022-12-18T10:34:46;0.93;;;0.70;;
63688;SDS011;54895;40.928;14.480;2022-12-18T10:37:15;1.05;;;0.60;;
63688;SDS011;54895;40.928;14.480;2022-12-18T10:39:42;1.00;;;0.60;;
63688;SDS011;54895;40.928;14.480;2022-12-18T10:42:14;0.45;;;0.38;;
63688;SDS011;54895;40.928;14.480;2022-12-18T10:44:41;0.65;;;0.47;;
63688;SDS011;54895;40.928;14.480;2022-12-18T10:47:11;0.45;;;0.40;;
63688;SDS011;54895;40.928;14.480;2022-12-18T10:49:37;2.25;;;0.45;;
63688;SDS011;54895;40.928;14.480;2022-12-18T10:52:13;0.38;;;0.30;;
63688;SDS011;54895;40.928;14.480;2022-12-18T10:54:45;0.60;;;0.50;;
63688;SDS011;54895;40.928;14.480;2022-12-18T10:57:16;0.30;;;0.30;;
63688;SDS011;54895;40.928;14.480;2022-12-18T10:59:52;1.23;;;0.65;;
63688;SDS011;54895;40.928;14.480;2022-12-18T11:02:38;1.00;;;0.40;;
63688;SDS011;54895;40.928;14.480;2022-12-18T11:07:50;0.85;;;0.70;;
63688;SDS011;54895;40.928;14.480;2022-12-18T11:10:17;0.70;;;0.40;;
63688;SDS011;54895;40.928;14.480;2022-12-18T11:12:43;0.43;;;0.30;;
63688;SDS011;54895;40.928;14.480;2022-12-18T11:15:15;0.95;;;0.40;;
63688;SDS011;54895;40.928;14.480;2022-12-18T11:17:41;0.93;;;0.60;;
63688;SDS011;54895;40.928;14.480;2022-12-18T11:22:54;0.85;;;0.55;;
63688;SDS011;54895;40.928;14.480;2022-12-18T11:25:21;0.75;;;0.50;;
63688;SDS011;54895;40.928;14.480;2022-12-18T11:32:49;1.42;;;0.57;;
63688;SDS011;54895;40.928;14.480;2022-12-18T11:35:30;0.93;;;0.60;;
63688;SDS011;54895;40.928;14.480;2022-12-18T11:38:09;3.15;;;0.50;;
63688;SDS011;54895;40.928;14.480;2022-12-18T11:40:36;1.30;;;0.50;;
63688;SDS011;54895;40.928;14.480;2022-12-18T11:43:08;1.17;;;0.68;;
63688;SDS011;54895;40.928;14.480;2022-12-18T11:45:40;0.80;;;0.50;;
63688;SDS011;54895;40.928;14.480;2022-12-18T11:50:51;1.35;;;0.90;;
63688;SDS011;54895;40.928;14.480;2022-12-18T11:53:18;1.63;;;0.73;;
63688;SDS011;54895;40.928;14.480;2022-12-18T12:00:50;0.82;;;0.57;;
63688;SDS011;54895;40.928;14.480;2022-12-18T12:03:37;1.23;;;0.50;;
63688;SDS011;54895;40.928;14.480;2022-12-18T12:06:26;1.70;;;0.65;;
63688;SDS011;54895;40.928;14.480;2022-12-18T12:11:27;1.35;;;0.60;;
63688;SDS011;54895;40.928;14.480;2022-12-18T12:16:29;0.98;;;0.50;;
63688;SDS011;54895;40.928;14.480;2022-12-18T12:22:30;2.47;;;0.40;;
63688;SDS011;54895;40.928;14.480;2022-12-18T12:27:35;1.13;;;0.50;;
63688;SDS011;54895;40.928;14.480;2022-12-18T12:40:19;0.52;;;0.52;;
63688;SDS011;54895;40.928;14.480;2022-12-18T12:43:25;0.45;;;0.40;;
63688;SDS011;54895;40.928;14.480;2022-12-18T12:48:56;1.08;;;0.60;;
63688;SDS011;54895;40.928;14.480;2022-12-18T12:51:37;0.50;;;0.40;;
63688;SDS011;54895;40.928;14.480;2022-12-18T12:53:56;1.48;;;0.50;;
63688;SDS011;54895;40.928;14.480;2022-12-18T12:56:24;0.90;;;0.77;;
63688;SDS011;54895;40.928;14.480;2022-12-18T13:01:43;0.73;;;0.60;;
63688;SDS011;54895;40.928;14.480;2022-12-18T13:04:35;0.45;;;0.40;;
63688;SDS011;54895;40.928;14.480;2022-12-18T13:07:12;1.40;;;0.65;;
63688;SDS011;54895;40.928;14.480;2022-12-18T13:12:25;1.55;;;0.70;;
63688;SDS011;54895;40.928;14.480;2022-12-18T13:15:20;1.08;;;0.70;;
63688;SDS011;54895;40.928;14.480;2022-12-18T13:17:47;0.93;;;0.70;;
63688;SDS011;54895;40.928;14.480;2022-12-18T13:22:55;1.67;;;1.00;;
63688;SDS011;54895;40.928;14.480;2022-12-18T13:25:34;1.35;;;0.80;;
63688;SDS011;54895;40.928;14.480;2022-12-18T13:38:22;1.42;;;1.05;;
63688;SDS011;54895;40.928;14.480;2022-12-18T13:45:46;1.65;;;1.15;;
63688;SDS011;54895;40.928;14.480;2022-12-18T13:48:37;1.67;;;1.20;;
63688;SDS011;54895;40.928;14.480;2022-12-18T13:51:09;2.08;;;1.33;;
63688;SDS011;54895;40.928;14.480;2022-12-18T13:56:28;0.80;;;0.70;;
63688;SDS011;54895;40.928;14.480;2022-12-18T14:01:49;1.50;;;0.90;;
63688;SDS011;54895;40.928;14.480;2022-12-18T14:04:38;1.10;;;0.80;;
63688;SDS011;54895;40.928;14.480;2022-12-18T14:07:05;1.60;;;1.10;;
63688;SDS011;54895;40.928;14.480;2022-12-18T14:15:03;1.85;;;0.85;;
63688;SDS011;54895;40.928;14.480;2022-12-18T14:17:30;1.38;;;0.98;;
63688;SDS011;54895;40.928;14.480;2022-12-18T14:20:00;2.33;;;1.50;;
63688;SDS011;54895;40.928;14.480;2022-12-18T14:22:26;1.70;;;1.35;;
63688;SDS011;54895;40.928;14.480;2022-12-18T14:25:10;2.72;;;1.45;;
63688;SDS011;54895;40.928;14.480;2022-12-18T14:27:43;2.45;;;1.85;;
63688;SDS011;54895;40.928;14.480;2022-12-18T14:33:10;2.78;;;1.42;;
63688;SDS011;54895;40.928;14.480;2022-12-18T14:35:37;1.50;;;1.07;;
63688;SDS011;54895;40.928;14.480;2022-12-18T14:40:36;1.95;;;1.27;;
63688;SDS011;54895;40.928;14.480;2022-12-18T14:43:02;1.80;;;1.20;;
63688;SDS011;54895;40.928;14.480;2022-12-18T14:45:32;2.17;;;1.20;;
63688;SDS011;54895;40.928;14.480;2022-12-18T14:47:59;2.50;;;1.70;;
63688;SDS011;54895;40.928;14.480;2022-12-18T14:50:25;5.88;;;2.35;;
63688;SDS011;54895;40.928;14.480;2022-12-18T14:52:52;4.53;;;2.60;;
63688;SDS011;54895;40.928;14.480;2022-12-18T14:55:18;4.50;;;2.22;;
63688;SDS011;54895;40.928;14.480;2022-12-18T14:57:45;4.28;;;2.65;;
63688;SDS011;54895;40.928;14.480;2022-12-18T15:00:18;3.03;;;2.20;;
63688;SDS011;54895;40.928;14.480;2022-12-18T15:02:46;1.98;;;1.60;;
63688;SDS011;54895;40.928;14.480;2022-12-18T15:05:16;3.97;;;2.60;;
63688;SDS011;54895;40.928;14.480;2022-12-18T15:07:45;3.75;;;2.22;;
63688;SDS011;54895;40.928;14.480;2022-12-18T15:12:45;2.40;;;2.20;;
63688;SDS011;54895;40.928;14.480;2022-12-18T15:17:58;4.00;;;2.13;;
63688;SDS011;54895;40.928;14.480;2022-12-18T15:23:14;4.10;;;2.50;;
63688;SDS011;54895;40.928;14.480;2022-12-18T15:25:41;2.22;;;1.40;;
63688;SDS011;54895;40.928;14.480;2022-12-18T15:28:43;2.70;;;1.90;;
63688;SDS011;54895;40.928;14.480;2022-12-18T15:31:00;3.42;;;1.80;;
63688;SDS011;54895;40.928;14.480;2022-12-18T15:33:30;2.83;;;2.08;;
63688;SDS011;54895;40.928;14.480;2022-12-18T15:35:57;3.28;;;1.83;;
63688;SDS011;54895;40.928;14.480;2022-12-18T15:38:24;2.63;;;1.67;;
63688;SDS011;54895;40.928;14.480;2022-12-18T15:40:52;2.60;;;1.70;;
63688;SDS011;54895;40.928;14.480;2022-12-18T15:43:19;2.72;;;1.95;;
63688;SDS011;54895;40.928;14.480;2022-12-18T15:46:05;1.92;;;1.20;;
63688;SDS011;54895;40.928;14.480;2022-12-18T15:48:33;2.30;;;1.52;;
63688;SDS011;54895;40.928;14.480;2022-12-18T15:50:59;2.83;;;1.52;;
63688;SDS011;54895;40.928;14.480;2022-12-18T15:53:28;2.28;;;1.33;;
63688;SDS011;54895;40.928;14.480;2022-12-18T15:55:55;1.98;;;1.30;;
63688;SDS011;54895;40.928;14.480;2022-12-18T15:58:40;2.28;;;1.30;;
63688;SDS011;54895;40.928;14.480;2022-12-18T16:01:07;3.95;;;1.48;;
63688;SDS011;54895;40.928;14.480;2022-12-18T16:03:34;4.43;;;1.90;;
63688;SDS011;54895;40.928;14.480;2022-12-18T16:06:00;3.75;;;2.22;;
63688;SDS011;54895;40.928;14.480;2022-12-18T16:08:28;2.47;;;1.60;;
63688;SDS011;54895;40.928;14.480;2022-12-18T16:10:56;7.35;;;2.72;;
63688;SDS011;54895;40.928;14.480;2022-12-18T16:13:22;4.53;;;2.97;;
63688;SDS011;54895;40.928;14.480;2022-12-18T16:15:48;4.90;;;3.20;;
63688;SDS011;54895;40.928;14.480;2022-12-18T16:18:15;5.03;;;3.17;;
63688;SDS011;54895;40.928;14.480;2022-12-18T16:20:41;5.57;;;3.40;;
63688;SDS011;54895;40.928;14.480;2022-12-18T16:23:07;7.10;;;4.55;;
63688;SDS011;54895;40.928;14.480;2022-12-18T16:25:33;6.22;;;4.05;;
63688;SDS011;54895;40.928;14.480;2022-12-18T16:27:59;7.03;;;4.45;;
63688;SDS011;54895;40.928;14.480;2022-12-18T16:30:29;11.25;;;6.65;;
63688;SDS011;54895;40.928;14.480;2022-12-18T16:32:56;11.70;;;6.93;;
63688;SDS011;54895;40.928;14.480;2022-12-18T16:35:23;10.68;;;6.03;;
63688;SDS011;54895;40.928;14.480;2022-12-18T16:37:49;10.95;;;6.35;;
63688;SDS011;54895;40.928;14.480;2022-12-18T16:40:15;8.40;;;5.18;;
63688;SDS011;54895;40.928;14.480;2022-12-18T16:42:43;9.82;;;6.78;;
63688;SDS011;54895;40.928;14.480;2022-12-18T16:45:10;15.20;;;9.85;;
63688;SDS011;54895;40.928;14.480;2022-12-18T16:47:37;9.77;;;7.13;;
63688;SDS011;54895;40.928;14.480;2022-12-18T16:50:04;12.63;;;8.48;;
63688;SDS011;54895;40.928;14.480;2022-12-18T16:52:30;11.98;;;8.10;;
63688;SDS011;54895;40.928;14.480;2022-12-18T16:54:56;10.23;;;6.35;;
63688;SDS011;54895;40.928;14.480;2022-12-18T16:57:22;7.78;;;4.93;;
63688;SDS011;54895;40.928;14.480;2022-12-18T16:59:48;8.80;;;5.60;;
63688;SDS011;54895;40.928;14.480;2022-12-18T17:02:22;10.60;;;6.30;;
63688;SDS011;54895;40.928;14.480;2022-12-18T17:04:48;10.82;;;5.65;;
63688;SDS011;54895;40.928;14.480;2022-12-18T17:07:15;7.25;;;3.85;;
63688;SDS011;54895;40.928;14.480;2022-12-18T17:09:41;9.38;;;5.25;;
63688;SDS011;54895;40.928;14.480;2022-12-18T17:12:07;7.03;;;4.15;;
63688;SDS011;54895;40.928;14.480;2022-12-18T17:14:34;3.88;;;3.20;;
63688;SDS011;54895;40.928;14.480;2022-12-18T17:17:01;7.88;;;4.07;;
63688;SDS011;54895;40.928;14.480;2022-12-18T17:22:53;6.95;;;3.90;;
63688;SDS011;54895;40.928;14.480;2022-12-18T17:25:24;6.18;;;3.83;;
63688;SDS011;54895;40.928;14.480;2022-12-18T17:27:50;6.13;;;4.18;;
63688;SDS011;54895;40.928;14.480;2022-12-18T17:30:16;8.25;;;4.82;;